Terminal Aerodrome Forecast
Issued by NWS

Home | Current Version | Previous Version | Text Only | Print | Product List | Glossary On
Versions: 1 2 3 4 5 6 7 8 9 10 11 12 13 14 15 16 17
074
FTUS41 KBTV 302337
TAFSLK
TAF
KSLK 302337Z 3100/3124 24007KT P6SM SKC
     FM310700 24004KT 3SM BR SCT020
      TEMPO 3107/3111 1 1/2SM BR
     FM311200 24008KT P6SM SCT250
     FM311500 26010G17KT P6SM SCT050
     FM311900 28009G15KT P6SM BKN050=

USA.gov is the U.S. government's official web portal to all federal, state and local government web resources and services.